createdAt,value
2019-03-02T00:00:07.096Z,25.90
2019-03-02T00:05:08.197Z,27.40
2019-03-02T00:10:10.059Z,27.27
2019-03-02T00:15:12.195Z,27.23
2019-03-02T00:20:14.788Z,28.37
2019-03-02T00:25:16.311Z,28.17
2019-03-02T00:30:20.773Z,27.63
2019-03-02T00:35:20.552Z,27.47
2019-03-02T00:40:21.663Z,27.57
2019-03-02T00:45:22.890Z,27.13
2019-03-02T00:50:24.088Z,27.30
2019-03-02T00:55:25.188Z,27.73
2019-03-02T01:00:26.292Z,29.60
2019-03-02T01:05:27.379Z,27.47
2019-03-02T01:10:28.583Z,28.27
2019-03-02T01:15:29.889Z,30.17
2019-03-02T01:20:30.987Z,29.53
2019-03-02T01:25:32.191Z,29.60
2019-03-02T01:30:33.460Z,29.90
2019-03-02T01:35:34.672Z,27.57
2019-03-02T01:40:37.898Z,25.73
2019-03-02T01:45:38.818Z,28.93
2019-03-02T01:50:39.995Z,27.37
2019-03-02T01:55:41.091Z,27.53
2019-03-02T02:00:42.198Z,26.93
2019-03-02T02:05:43.302Z,27.40
2019-03-02T02:10:44.835Z,26.30
2019-03-02T02:15:45.924Z,25.20
2019-03-02T02:20:50.399Z,25.97
2019-03-02T02:25:50.053Z,25.00
2019-03-02T02:30:51.189Z,26.70
2019-03-02T02:35:52.294Z,26.10
2019-03-02T02:40:53.512Z,25.87
2019-03-02T02:45:55.227Z,24.67
2019-03-02T02:50:56.523Z,24.50
2019-03-02T02:55:57.745Z,25.00
2019-03-02T03:00:58.845Z,24.23
2019-03-02T03:05:59.952Z,22.67
2019-03-02T03:11:01.577Z,22.67
2019-03-02T03:16:05.352Z,21.53
2019-03-02T03:21:06.471Z,23.60
2019-03-02T03:26:07.573Z,21.93
2019-03-02T03:31:21.912Z,21.50
2019-03-02T03:36:11.945Z,22.10
2019-03-02T03:41:13.073Z,20.83
2019-03-02T03:46:17.991Z,20.43
2019-03-02T03:51:17.205Z,20.33
2019-03-02T03:56:18.306Z,21.57
2019-03-02T04:01:19.541Z,21.27
2019-03-02T04:06:23.539Z,19.40
2019-03-02T04:11:23.775Z,20.70
2019-03-02T04:16:24.856Z,20.70
2019-03-02T04:21:32.241Z,20.27
2019-03-02T04:26:36.677Z,21.17
2019-03-02T04:31:36.519Z,21.73
2019-03-02T04:36:37.748Z,22.03
2019-03-02T04:41:39.586Z,22.43
2019-03-02T04:46:41.760Z,20.93
2019-03-02T04:51:42.971Z,21.07
2019-03-02T04:56:44.058Z,20.03
2019-03-02T05:01:46.237Z,20.10
2019-03-02T05:06:50.663Z,20.27
2019-03-02T05:11:50.534Z,19.80
2019-03-02T05:16:51.627Z,20.60
2019-03-02T05:21:52.741Z,20.57
2019-03-02T05:26:56.736Z,22.23
2019-03-02T05:31:56.935Z,21.20
2019-03-02T05:36:59.653Z,21.03
2019-03-02T05:42:01.064Z,21.67
2019-03-02T05:47:02.813Z,21.27
2019-03-02T05:52:04.019Z,19.87
2019-03-02T05:57:05.485Z,19.10
2019-03-02T06:02:07.997Z,20.03
2019-03-02T06:07:09.102Z,19.03
2019-03-02T06:12:11.970Z,19.00
2019-03-02T06:17:13.416Z,17.37
2019-03-02T06:22:17.660Z,16.27
2019-03-02T06:27:17.501Z,17.40
2019-03-02T06:32:18.604Z,16.50
2019-03-02T06:37:19.930Z,16.13
2019-03-02T06:42:22.026Z,17.23
2019-03-02T06:47:23.128Z,20.80
2019-03-02T06:52:25.300Z,16.47
2019-03-02T06:57:28.948Z,15.73
2019-03-02T07:02:31.676Z,14.83
2019-03-02T07:07:32.941Z,16.73
2019-03-02T07:12:34.100Z,15.47
2019-03-02T07:17:37.110Z,15.60
2019-03-02T07:22:38.221Z,16.60
2019-03-02T07:27:39.313Z,17.17
2019-03-02T07:32:40.423Z,13.87
2019-03-02T07:37:44.191Z,15.50
2019-03-02T07:42:44.531Z,14.80
2019-03-02T07:47:45.850Z,16.57
2019-03-02T07:52:49.819Z,18.97
2019-03-02T07:57:50.039Z,15.87
2019-03-02T08:02:51.135Z,15.57
2019-03-02T08:07:52.226Z,16.93
2019-03-02T08:12:53.327Z,15.50
2019-03-02T08:17:54.573Z,13.20
2019-03-02T08:22:55.728Z,13.20
2019-03-02T08:27:56.927Z,12.83
2019-03-02T08:32:59.162Z,12.23
2019-03-02T08:38:01.671Z,15.55
2019-03-02T08:43:03.493Z,12.63
2019-03-02T08:48:04.894Z,11.73
2019-03-02T08:53:06.035Z,12.50
2019-03-02T08:58:07.128Z,12.73
2019-03-02T09:03:08.428Z,11.27
2019-03-02T09:08:09.554Z,11.53
2019-03-02T09:13:10.643Z,11.17
2019-03-02T09:18:11.748Z,12.37
2019-03-02T09:23:12.853Z,12.30
2019-03-02T09:28:13.950Z,11.70
2019-03-02T09:33:15.068Z,10.63
2019-03-02T09:38:17.094Z,10.50
2019-03-02T09:43:19.326Z,9.70
2019-03-02T09:48:20.955Z,9.90
2019-03-02T09:53:24.280Z,11.53
2019-03-02T09:58:25.836Z,12.03
2019-03-02T10:03:27.676Z,11.07
2019-03-02T10:08:29.083Z,10.60
2019-03-02T10:13:30.184Z,10.80
2019-03-02T10:18:31.275Z,11.80
2019-03-02T10:23:32.371Z,12.50
2019-03-02T10:28:34.106Z,11.07
2019-03-02T10:33:36.470Z,12.07
2019-03-02T10:38:37.571Z,11.70
2019-03-02T10:43:38.680Z,12.37
2019-03-02T10:48:39.795Z,11.70
2019-03-02T10:53:40.889Z,11.13
2019-03-02T10:58:41.978Z,10.47
2019-03-02T11:03:43.093Z,10.67
2019-03-02T11:08:58.020Z,11.83
2019-03-02T11:14:02.960Z,11.40
2019-03-02T11:19:15.017Z,11.03
2019-03-02T11:24:34.804Z,11.03
2019-03-02T11:29:40.580Z,11.77
2019-03-02T11:34:52.718Z,10.97
2019-03-02T11:40:11.129Z,10.47
2019-03-02T11:45:14.588Z,10.87
2019-03-02T11:50:23.739Z,10.47
2019-03-02T11:55:43.449Z,10.83
2019-03-02T12:00:54.198Z,11.60
2019-03-02T12:06:15.808Z,10.43
2019-03-02T12:11:21.788Z,9.77
2019-03-02T12:16:27.943Z,8.60
2019-03-02T12:21:47.931Z,9.33
2019-03-02T12:26:53.760Z,10.00
2019-03-02T12:32:07.555Z,9.30
2019-03-02T12:37:28.414Z,9.20
2019-03-02T12:42:32.232Z,9.83
2019-03-02T12:47:50.348Z,9.63
2019-03-02T12:52:53.379Z,9.67
2019-03-02T12:57:59.383Z,10.70
2019-03-02T13:03:02.388Z,9.30
2019-03-02T13:08:14.852Z,9.00
2019-03-02T13:13:20.224Z,11.07
2019-03-02T13:18:33.853Z,10.63
2019-03-02T13:23:38.944Z,9.80
2019-03-02T13:28:50.813Z,10.00
2019-03-02T13:34:03.091Z,9.43
2019-03-02T13:39:23.346Z,10.67
2019-03-02T13:44:44.937Z,10.43
2019-03-02T13:50:03.061Z,11.80
2019-03-02T13:55:23.357Z,10.60
2019-03-02T14:00:47.745Z,8.73
2019-03-02T14:05:57.967Z,8.10
2019-03-02T14:11:10.109Z,8.07
2019-03-02T14:16:32.114Z,8.20
2019-03-02T14:21:52.764Z,7.50
2019-03-02T14:27:12.657Z,7.10
2019-03-02T14:32:30.774Z,7.67
2019-03-02T14:37:33.778Z,6.37
2019-03-02T14:42:39.960Z,6.53
2019-03-02T14:47:58.651Z,6.73
2019-03-02T14:53:18.371Z,6.67
2019-03-02T14:58:24.368Z,7.43
2019-03-02T15:03:29.290Z,6.50
2019-03-02T15:08:37.207Z,7.40
2019-03-02T15:13:37.220Z,7.37
2019-03-02T15:18:43.219Z,7.00
2019-03-02T15:24:02.908Z,7.57
2019-03-02T15:29:05.905Z,7.37
2019-03-02T15:34:13.860Z,7.83
2019-03-02T15:39:34.532Z,6.70
2019-03-02T15:44:47.578Z,7.40
2019-03-02T15:50:09.052Z,10.10
2019-03-02T15:55:14.837Z,7.70
2019-03-02T16:00:18.057Z,7.60
2019-03-02T16:05:36.545Z,7.43
2019-03-02T16:10:55.975Z,7.70
2019-03-02T16:15:59.004Z,7.20
2019-03-02T16:21:02.000Z,7.27
2019-03-02T16:26:16.905Z,5.90
2019-03-02T16:31:36.273Z,6.50
2019-03-02T16:36:55.947Z,5.90
2019-03-02T16:42:14.191Z,7.43
2019-03-02T16:47:17.528Z,5.00
2019-03-02T16:52:38.917Z,5.20
2019-03-02T16:57:57.600Z,4.70
2019-03-02T17:03:17.520Z,4.33
2019-03-02T17:08:31.124Z,3.70
2019-03-02T17:13:50.952Z,5.87
2019-03-02T17:19:10.594Z,3.73
2019-03-02T17:24:19.925Z,4.03
2019-03-02T17:29:30.229Z,4.00
2019-03-02T17:34:33.232Z,3.50
2019-03-02T17:39:45.028Z,3.07
2019-03-02T17:45:03.512Z,3.40
2019-03-02T17:50:09.048Z,12.33
2019-03-02T17:55:15.151Z,8.97
2019-03-02T18:00:33.197Z,7.53
2019-03-02T18:05:54.239Z,4.33
2019-03-02T18:11:06.217Z,5.30
2019-03-02T18:16:12.233Z,6.23
2019-03-02T18:21:13.322Z,8.50
2019-03-02T18:26:14.688Z,5.20
2019-03-02T18:31:19.658Z,5.13
2019-03-02T18:36:19.097Z,5.37
2019-03-02T18:41:20.208Z,4.63
2019-03-02T18:46:21.738Z,7.20
2019-03-02T18:51:27.643Z,4.27
2019-03-02T18:56:28.788Z,5.33
2019-03-02T19:01:32.849Z,4.63
2019-03-02T19:06:33.102Z,6.43
2019-03-02T19:11:34.248Z,4.73
2019-03-02T19:16:35.353Z,3.53
2019-03-02T19:21:36.834Z,3.80
2019-03-02T19:26:37.931Z,3.30
2019-03-02T19:31:39.031Z,4.13
2019-03-02T19:36:40.287Z,4.00
2019-03-02T19:41:41.563Z,5.07
2019-03-02T19:46:42.656Z,4.97
2019-03-02T19:51:43.799Z,3.50
2019-03-02T19:56:44.909Z,3.00
2019-03-02T20:01:49.017Z,2.87
2019-03-02T20:06:50.116Z,2.70
2019-03-02T20:11:51.289Z,3.07
2019-03-02T20:16:52.436Z,2.17
2019-03-02T20:21:53.545Z,4.23
2019-03-02T20:26:54.716Z,2.63
2019-03-02T20:31:55.864Z,3.20
2019-03-02T20:36:57.159Z,3.83
2019-03-02T20:41:58.308Z,6.87
2019-03-02T20:46:59.442Z,2.57
2019-03-02T20:52:00.591Z,2.60
2019-03-02T20:57:01.900Z,2.40
2019-03-02T21:02:03.246Z,3.60
2019-03-02T21:07:04.446Z,3.80
2019-03-02T21:12:05.578Z,3.17
2019-03-02T21:17:06.891Z,3.43
2019-03-02T21:22:08.026Z,2.53
2019-03-02T21:27:09.175Z,2.47
2019-03-02T21:32:10.474Z,2.70
2019-03-02T21:37:11.671Z,1.97
2019-03-02T21:42:12.897Z,3.33
2019-03-02T21:47:13.999Z,2.83
2019-03-02T21:52:15.107Z,2.03
2019-03-02T21:57:16.209Z,2.10
2019-03-02T22:02:17.319Z,2.00
2019-03-02T22:07:18.424Z,2.20
2019-03-02T22:12:19.553Z,2.03
2019-03-02T22:17:20.656Z,2.23
2019-03-02T22:22:21.757Z,2.00
2019-03-02T22:27:22.866Z,1.30
2019-03-02T22:32:23.960Z,1.80
2019-03-02T22:37:25.069Z,1.97
2019-03-02T22:42:26.194Z,1.70
2019-03-02T22:47:27.291Z,2.30
2019-03-02T22:52:28.410Z,1.60
2019-03-02T22:57:29.512Z,1.53
2019-03-02T23:02:30.410Z,1.83
2019-03-02T23:07:31.594Z,1.30
2019-03-02T23:12:32.687Z,1.13
2019-03-02T23:17:33.783Z,1.80
2019-03-02T23:22:34.881Z,1.10
2019-03-02T23:27:36.019Z,1.80
2019-03-02T23:32:37.148Z,1.90
2019-03-02T23:37:38.239Z,2.27
2019-03-02T23:42:39.455Z,3.10
2019-03-02T23:47:40.660Z,3.27
2019-03-02T23:52:42.064Z,1.30
2019-03-02T23:57:43.354Z,1.27
